createdAt,value
2017-10-29T00:00:03.236Z,0
2017-10-29T00:05:02.641Z,0
2017-10-29T00:10:03.134Z,0
2017-10-29T00:15:02.648Z,0
2017-10-29T00:20:03.167Z,0
2017-10-29T00:25:02.554Z,0
2017-10-29T00:30:03.012Z,0
2017-10-29T00:35:02.483Z,0
2017-10-29T00:40:03.064Z,0
2017-10-29T00:45:02.634Z,0
2017-10-29T00:50:03.131Z,0
2017-10-29T00:55:02.633Z,0
2017-10-29T01:00:03.132Z,0
2017-10-29T01:05:02.789Z,0
2017-10-29T01:10:03.243Z,0
2017-10-29T01:15:02.571Z,0
2017-10-29T01:20:03.003Z,0
2017-10-29T01:25:03.366Z,0
2017-10-29T01:30:02.984Z,0
2017-10-29T01:35:02.707Z,0
2017-10-29T01:40:03.280Z,0
2017-10-29T01:45:02.772Z,0
2017-10-29T01:50:03.198Z,0
2017-10-29T01:55:02.647Z,0
2017-10-29T02:00:03.170Z,0
2017-10-29T02:05:02.758Z,0
2017-10-29T02:10:03.371Z,0
2017-10-29T02:15:02.896Z,0
2017-10-29T02:20:03.307Z,0
2017-10-29T02:25:02.936Z,0
2017-10-29T02:30:03.404Z,0
2017-10-29T02:35:02.886Z,0
2017-10-29T02:40:03.530Z,0
2017-10-29T02:45:03.037Z,0
2017-10-29T02:50:02.619Z,0
2017-10-29T02:55:03.000Z,0
2017-10-29T03:00:02.584Z,0
2017-10-29T03:05:03.134Z,0
2017-10-29T03:10:02.603Z,0
2017-10-29T03:15:03.165Z,0
2017-10-29T03:20:02.621Z,0
2017-10-29T03:25:03.115Z,0
2017-10-29T03:30:02.583Z,0
2017-10-29T03:35:03.139Z,0
2017-10-29T03:40:02.641Z,0
2017-10-29T03:45:03.240Z,0
2017-10-29T03:50:02.848Z,0
2017-10-29T03:55:03.268Z,0
2017-10-29T04:00:02.647Z,0
2017-10-29T04:05:03.197Z,0
2017-10-29T04:10:02.623Z,0
2017-10-29T04:15:03.221Z,0
2017-10-29T04:20:02.838Z,0
2017-10-29T04:25:03.284Z,0
2017-10-29T04:30:02.731Z,0
2017-10-29T04:35:03.260Z,0
2017-10-29T04:40:02.783Z,0
2017-10-29T04:45:03.341Z,0
2017-10-29T04:50:02.940Z,0
2017-10-29T04:55:02.425Z,0
2017-10-29T05:00:02.928Z,0
2017-10-29T05:05:03.458Z,0
2017-10-29T05:10:03.089Z,0
2017-10-29T05:15:02.531Z,0
2017-10-29T05:20:03.013Z,0
2017-10-29T05:25:02.493Z,0
2017-10-29T05:30:03.352Z,0
2017-10-29T05:35:02.871Z,0
2017-10-29T05:40:03.392Z,0
2017-10-29T05:45:02.807Z,0
2017-10-29T05:50:02.514Z,0
2017-10-29T05:55:02.902Z,2
2017-10-29T06:00:03.354Z,7
2017-10-29T06:05:02.832Z,22
2017-10-29T06:10:02.463Z,39
2017-10-29T06:15:02.861Z,55
2017-10-29T06:20:02.470Z,63
2017-10-29T06:25:02.893Z,77
2017-10-29T06:30:03.296Z,84
2017-10-29T06:35:02.786Z,202
2017-10-29T06:40:03.203Z,380
2017-10-29T06:45:02.611Z,620
2017-10-29T06:50:03.041Z,593
2017-10-29T06:55:02.526Z,822
2017-10-29T07:00:02.924Z,953
2017-10-29T07:05:02.481Z,1000
2017-10-29T07:10:03.100Z,1000
2017-10-29T07:15:02.617Z,1000
2017-10-29T07:20:03.029Z,2000
2017-10-29T07:25:02.582Z,2000
2017-10-29T07:30:03.211Z,2000
2017-10-29T07:35:02.534Z,2000
2017-10-29T07:45:02.453Z,2000
2017-10-29T07:50:02.474Z,3000
2017-10-29T07:55:02.715Z,4000
2017-10-29T08:00:03.285Z,1000
2017-10-29T08:05:02.760Z,2000
2017-10-29T08:10:02.467Z,3000
2017-10-29T08:15:03.034Z,2000
2017-10-29T08:20:02.600Z,2000
2017-10-29T08:25:03.122Z,18000
2017-10-29T08:30:02.630Z,19000
2017-10-29T08:35:03.208Z,19000
2017-10-29T08:40:02.699Z,19000
2017-10-29T08:45:03.082Z,23000
2017-10-29T08:50:02.630Z,6000
2017-10-29T08:55:03.264Z,12000
2017-10-29T09:00:02.836Z,28000
2017-10-29T09:05:03.249Z,30000
2017-10-29T09:10:02.859Z,7000
2017-10-29T09:15:03.307Z,27000
2017-10-29T09:20:02.721Z,6000
2017-10-29T09:25:03.120Z,8000
2017-10-29T09:30:02.697Z,9000
2017-10-29T09:35:03.315Z,5000
2017-10-29T09:40:02.885Z,7000
2017-10-29T09:45:03.320Z,33000
2017-10-29T09:50:02.747Z,34000
2017-10-29T09:55:03.371Z,12000
2017-10-29T10:00:02.992Z,25000
2017-10-29T10:05:02.567Z,8000
2017-10-29T10:10:03.172Z,26000
2017-10-29T10:15:02.660Z,33000
2017-10-29T10:20:03.289Z,35000
2017-10-29T10:25:02.836Z,35000
2017-10-29T10:30:03.280Z,36000
2017-10-29T10:35:02.916Z,36000
2017-10-29T10:40:02.574Z,16000
2017-10-29T10:45:02.973Z,6000
2017-10-29T10:50:03.355Z,4000
2017-10-29T10:55:02.898Z,6000
2017-10-29T11:00:02.445Z,27000
2017-10-29T11:05:02.941Z,34000
2017-10-29T11:10:03.451Z,26000
2017-10-29T11:15:02.931Z,7000
2017-10-29T11:20:02.505Z,5000
2017-10-29T11:25:02.921Z,6000
2017-10-29T11:30:02.525Z,6000
2017-10-29T11:35:03.279Z,6000
2017-10-29T11:40:02.872Z,5000
2017-10-29T11:45:03.337Z,6000
2017-10-29T11:50:02.861Z,6000
2017-10-29T11:55:03.419Z,7000
2017-10-29T12:00:02.946Z,3000
2017-10-29T12:05:03.433Z,3000
2017-10-29T12:10:03.047Z,3000
2017-10-29T12:15:02.496Z,6000
2017-10-29T12:20:02.954Z,5000
2017-10-29T12:25:03.422Z,6000
2017-10-29T12:30:02.815Z,12000
2017-10-29T12:35:03.408Z,28000
2017-10-29T12:40:02.979Z,27000
2017-10-29T12:45:03.414Z,17000
2017-10-29T12:50:02.964Z,28000
2017-10-29T12:55:02.556Z,28000
2017-10-29T13:00:02.922Z,24000
2017-10-29T13:05:02.612Z,8000
2017-10-29T13:10:03.176Z,7000
2017-10-29T13:15:02.641Z,27000
2017-10-29T13:20:03.108Z,26000
2017-10-29T13:25:02.727Z,14000
2017-10-29T13:30:03.113Z,15000
2017-10-29T13:35:02.608Z,17000
2017-10-29T13:40:03.097Z,17000
2017-10-29T13:45:02.667Z,15000
2017-10-29T13:50:03.171Z,2000
2017-10-29T13:55:02.619Z,1000
2017-10-29T14:00:03.070Z,1000
2017-10-29T14:05:02.447Z,18000
2017-10-29T14:10:03.135Z,14000
2017-10-29T14:15:02.513Z,10000
2017-10-29T14:20:02.915Z,7000
2017-10-29T14:25:03.249Z,13000
2017-10-29T14:30:02.795Z,15000
2017-10-29T14:35:02.446Z,3000
2017-10-29T14:40:03.109Z,2000
2017-10-29T14:45:02.717Z,3000
2017-10-29T14:50:03.123Z,8000
2017-10-29T14:55:03.470Z,5000
2017-10-29T15:00:02.899Z,1000
2017-10-29T15:05:02.448Z,1000
2017-10-29T15:10:03.092Z,960
2017-10-29T15:15:02.461Z,2000
2017-10-29T15:20:02.841Z,4000
2017-10-29T15:25:03.401Z,2000
2017-10-29T15:30:02.759Z,1000
2017-10-29T15:35:03.431Z,1000
2017-10-29T15:40:03.066Z,1000
2017-10-29T15:45:02.653Z,1000
2017-10-29T15:50:03.024Z,858
2017-10-29T15:55:02.604Z,595
2017-10-29T16:00:02.995Z,464
2017-10-29T16:05:03.405Z,350
2017-10-29T16:10:02.792Z,281
2017-10-29T16:15:03.402Z,151
2017-10-29T16:20:02.964Z,81
2017-10-29T16:25:03.383Z,64
2017-10-29T16:30:02.747Z,41
2017-10-29T16:35:03.296Z,25
2017-10-29T16:40:02.865Z,12
2017-10-29T16:45:03.413Z,5
2017-10-29T16:50:02.822Z,2
2017-10-29T16:55:02.536Z,0
2017-10-29T17:00:03.151Z,0
2017-10-29T17:05:02.731Z,0
2017-10-29T17:10:03.297Z,0
2017-10-29T17:15:02.720Z,0
2017-10-29T17:20:03.125Z,0
2017-10-29T17:25:02.481Z,0
2017-10-29T17:30:02.995Z,0
2017-10-29T17:35:02.552Z,0
2017-10-29T17:40:03.175Z,0
2017-10-29T17:45:02.802Z,0
2017-10-29T17:50:02.430Z,0
2017-10-29T17:55:02.807Z,0
2017-10-29T18:00:03.193Z,0
2017-10-29T18:05:02.761Z,0
2017-10-29T18:10:03.439Z,0
2017-10-29T18:15:02.775Z,0
2017-10-29T18:20:03.359Z,0
2017-10-29T18:25:02.912Z,0
2017-10-29T18:30:03.413Z,0
2017-10-29T18:35:03.154Z,0
2017-10-29T18:40:02.727Z,0
2017-10-29T18:45:03.128Z,0
2017-10-29T18:50:02.754Z,0
2017-10-29T18:55:03.210Z,0
2017-10-29T19:00:02.631Z,0
2017-10-29T19:05:03.254Z,0
2017-10-29T19:10:02.667Z,0
2017-10-29T19:15:03.332Z,0
2017-10-29T19:20:02.922Z,0
2017-10-29T19:25:02.482Z,0
2017-10-29T19:30:03.072Z,0
2017-10-29T19:35:02.676Z,0
2017-10-29T19:40:03.114Z,0
2017-10-29T19:45:02.589Z,0
2017-10-29T19:50:03.219Z,0
2017-10-29T19:55:02.762Z,0
2017-10-29T20:00:03.106Z,0
2017-10-29T20:05:02.585Z,0
2017-10-29T20:10:03.002Z,0
2017-10-29T20:15:02.526Z,0
2017-10-29T20:20:03.106Z,0
2017-10-29T20:25:02.668Z,0
2017-10-29T20:30:03.284Z,0
2017-10-29T20:35:02.950Z,0
2017-10-29T20:45:03.004Z,0
2017-10-29T20:50:03.397Z,0
2017-10-29T20:55:02.974Z,0
2017-10-29T21:00:02.524Z,0
2017-10-29T21:05:03.140Z,0
2017-10-29T21:10:02.756Z,0
2017-10-29T21:15:03.336Z,0
2017-10-29T21:20:02.783Z,0
2017-10-29T21:25:03.391Z,0
2017-10-29T21:30:02.911Z,0
2017-10-29T21:35:03.267Z,0
2017-10-29T21:40:02.947Z,0
2017-10-29T21:45:02.477Z,0
2017-10-29T21:50:03.044Z,0
2017-10-29T21:55:02.639Z,0
2017-10-29T22:00:03.365Z,0
2017-10-29T22:05:02.881Z,0
2017-10-29T22:10:02.519Z,0
2017-10-29T22:15:03.182Z,0
2017-10-29T22:25:03.291Z,0
2017-10-29T22:30:02.982Z,0
2017-10-29T22:35:02.615Z,0
2017-10-29T22:40:03.139Z,0
2017-10-29T22:45:02.675Z,0
2017-10-29T22:50:03.052Z,0
2017-10-29T22:55:02.524Z,0
2017-10-29T23:00:03.122Z,0
2017-10-29T23:05:02.512Z,0
2017-10-29T23:10:03.167Z,0
2017-10-29T23:15:02.587Z,0
2017-10-29T23:20:03.255Z,0
2017-10-29T23:25:02.640Z,0
2017-10-29T23:30:03.227Z,0
2017-10-29T23:35:02.857Z,0
2017-10-29T23:40:02.522Z,0
2017-10-29T23:45:03.119Z,0
2017-10-29T23:50:02.750Z,0
2017-10-29T23:55:03.212Z,0
